Scroll down
FLIGHT INFORMATION
Air New Zealand

ANZ168

At Arrival Gate

YBBN
 NZAA
DATE: 2021-03-02
GATE: 
GATE DEPARTURE: 02:28
TAKEOFF: 02:36
DATE: 2021-03-02
GATE:  -
LANDING: 05:11
GATE ARRIVAL: 05:23
FLIGHT DATA
Crew: 
Speed: 
935 kph
Altitude: 
37,007 ft
Stage Length: 
2,295.4 km
Block Time: 
2.8 hrs
Flight Time: 
2.6 hrs
Fuel Used: 
19,759 kg
Cleared Route: YBBN BN POODL SCOTT ELLAS RIGMI UPLAR AA NZAA
TRACK DATA
50,000 ft 1,000 kts
AIRCRAFT INFO AND CUMULATIVE STATS
Aircraft Type: 
B77W
Registration: 
SELCAL: 
CQDP
MSN/LN: 
38407 / 921
Operator: 
Total Flights: 
2
Total Block Time: 
10.8 hrs
Total Flight Time: 
10.4 hrs
Total Fuel Used: 
79,584 kg
DATALINK LOG | Newest first | Current as of: 2022-08-18 16:36:00
LABEL SEQUENCE CONTENT Dn/Up
QD254105:23 33.5▼ Dn
QC143105:11▼ Dn
2U1941NZAA 280430Z AUTO 02012KT 350V060 9999 NCD 24/14 Q1013 NOSIG▲ Up
2S2708NZAA▼ Dn
QB211002:36▼ Dn
QA120702:28 77.2▼ Dn
A30005CLEARED TO NZAA VIA BN J208 SCOTT A464 AA. SQUAWK 4241.▲ Up
B35955YBBN NZAA B ▼ Dn
Q05755[LINK ACK]▲ Up
Q05755[LINK TEST]▼ Dn


AIRCRAFT HISTORY
FLIGHT DATE FLIGHT NO. ORIGIN DESTINATION CLEARED ROUTE BLOCK TIME FLIGHT TIME FUEL USED PILOT
2021-07-24ANZ10NZAA PHNL NZAA AGREX 30S77 25S79 15W77 10W75 05W73 01N70 10N65 CARRP PHNL8 hrs7.8 hrs131,891 lbRyan Syferd
2021-03-02ANZ168YBBN NZAA YBBN BN POODL SCOTT ELLAS RIGMI UPLAR AA NZAA2.8 hrs2.6 hrs43,561 lbMike Dryden